Time;durP1;ratioP1;P1;durP2;ratioP2;P2;SDS_P1;SDS_P2;PMS_P1;PMS_P2;Temp;Humidity;BMP_temperature;BMP_pressure;BME280_temperature;BME280_humidity;BME280_pressure;Samples;Min_cycle;Max_cycle;Signal;HPM_P1;HPM_P2
2021/05/28 00:00:57;;;;;;;13.57;6.88;;;;;;;7.25;98.72;101696.81;5076821;28;20027;-81
2021/05/28 00:03:22;;;;;;;16.55;7.28;;;;;;;7.33;99.40;101712.63;5089928;28;20016;-81
2021/05/28 00:05:47;;;;;;;12.80;7.60;;;;;;;7.36;99.18;101710.75;5076558;28;20467;-82
2021/05/28 00:08:12;;;;;;;16.35;7.90;;;;;;;7.42;99.53;101716.81;5076296;28;20020;-80
2021/05/28 00:10:38;;;;;;;13.70;7.70;;;;;;;7.49;99.37;101715.72;5093497;28;20016;-79
2021/05/28 00:13:03;;;;;;;17.88;8.45;;;;;;;7.45;99.55;101720.28;5076589;28;20024;-81
2021/05/28 00:15:28;;;;;;;18.13;9.40;;;;;;;7.46;99.09;101722.03;5076475;28;20035;-82
2021/05/28 00:17:54;;;;;;;19.08;9.45;;;;;;;7.42;99.01;101723.03;5078574;28;20021;-81
2021/05/28 00:20:20;;;;;;;21.42;9.80;;;;;;;7.28;98.68;101720.75;5093390;28;20039;-81
2021/05/28 00:22:45;;;;;;;14.93;8.63;;;;;;;7.33;99.27;101726.88;5076479;28;20020;-80
2021/05/28 00:25:12;;;;;;;20.35;9.05;;;;;;;7.26;98.95;101730.63;5076274;28;20016;-81
2021/05/28 00:27:38;;;;;;;20.45;10.43;;;;;;;7.28;99.10;101744.81;5076097;28;20036;-80
2021/05/28 00:30:05;;;;;;;35.33;10.63;;;;;;;7.25;99.24;101744.06;5075462;28;20383;-81
2021/05/28 00:32:30;;;;;;;26.27;10.65;;;;;;;7.16;98.79;101737.16;5076152;28;20085;-81
2021/05/28 00:34:56;;;;;;;21.55;10.32;;;;;;;7.12;99.19;101739.03;5092787;28;20119;-81
2021/05/28 00:37:21;;;;;;;19.88;11.85;;;;;;;7.09;98.90;101738.25;5092955;28;20361;-81
2021/05/28 00:39:46;;;;;;;22.65;11.45;;;;;;;7.09;99.05;101736.47;5075828;28;20071;-81
2021/05/28 00:42:12;;;;;;;26.65;11.57;;;;;;;7.11;99.28;101739.97;5092955;28;20434;-80
2021/05/28 00:44:39;;;;;;;25.23;12.50;;;;;;;6.99;99.36;101729.63;5092804;28;20020;-80
2021/05/28 00:47:05;;;;;;;25.90;12.13;;;;;;;6.93;99.59;101737.81;5076199;28;20027;-81
2021/05/28 00:49:30;;;;;;;23.63;12.75;;;;;;;7.05;99.55;101741.94;5092846;28;20023;-81
2021/05/28 00:51:55;;;;;;;28.10;14.02;;;;;;;7.05;99.75;101758.84;5092715;28;20027;-81
2021/05/28 00:54:21;;;;;;;23.42;13.68;;;;;;;7.02;99.38;101752.72;5075774;28;20056;-81
2021/05/28 00:56:47;;;;;;;31.08;13.65;;;;;;;6.92;99.55;101736.94;5092445;28;20115;-79
2021/05/28 00:59:14;;;;;;;28.38;13.18;;;;;;;6.90;99.62;101752.13;5092965;28;20520;-79
2021/05/28 01:01:39;;;;;;;27.00;14.07;;;;;;;6.86;100.00;101753.13;5092831;28;20060;-81
2021/05/28 01:04:06;;;;;;;24.85;13.73;;;;;;;6.89;99.88;101762.84;5093024;28;20498;-81
2021/05/28 01:06:31;;;;;;;22.45;12.52;;;;;;;6.79;100.00;101756.88;5092707;28;20020;-81
2021/05/28 01:08:57;;;;;;;29.15;14.00;;;;;;;6.85;100.00;101770.09;5075559;28;20463;-81
2021/05/28 01:11:22;;;;;;;29.83;14.57;;;;;;;6.91;99.84;101777.03;5093093;28;20478;-79
2021/05/28 01:13:48;;;;;;;25.05;14.15;;;;;;;6.87;99.29;101775.38;5075548;28;20024;-79
2021/05/28 01:16:13;;;;;;;30.63;13.38;;;;;;;6.82;99.64;101783.50;5075617;28;20497;-79
2021/05/28 01:18:39;;;;;;;25.15;14.65;;;;;;;6.79;99.50;101783.59;5092830;28;20072;-79
2021/05/28 01:21:04;;;;;;;28.50;14.57;;;;;;;6.79;99.55;101780.06;5075493;28;20490;-79
2021/05/28 01:23:30;;;;;;;24.05;13.32;;;;;;;6.76;99.88;101789.03;5075775;28;20035;-79
2021/05/28 01:25:56;;;;;;;25.33;13.40;;;;;;;6.71;100.00;101794.47;5092558;28;20023;-79
2021/05/28 01:28:21;;;;;;;25.00;13.27;;;;;;;6.70;99.51;101797.19;5092654;28;20153;-79
2021/05/28 01:30:46;;;;;;;30.88;14.50;;;;;;;6.67;99.98;101789.25;5092458;28;20077;-80
2021/05/28 01:33:12;;;;;;;23.83;11.95;;;;;;;6.55;100.00;101784.25;5092082;28;20572;-79
2021/05/28 01:35:37;;;;;;;31.85;12.63;;;;;;;6.53;99.74;101787.81;5075675;28;20032;-77
2021/05/28 01:38:05;;;;;;;31.05;12.57;;;;;;;6.43;100.00;101780.97;5092367;28;20027;-79
2021/05/28 01:40:30;;;;;;;24.60;12.57;;;;;;;6.52;100.00;101790.50;5092791;28;20480;-79
2021/05/28 01:42:56;;;;;;;28.23;14.02;;;;;;;6.45;100.00;101788.91;5096414;28;20028;-79
2021/05/28 01:45:21;;;;;;;29.13;13.88;;;;;;;6.36;99.57;101773.13;5096151;28;20020;-79
2021/05/28 01:47:46;;;;;;;23.80;12.77;;;;;;;6.39;99.93;101789.06;5096306;28;20078;-79
2021/05/28 01:50:12;;;;;;;20.70;12.35;;;;;;;6.39;99.96;101803.28;5079501;28;20020;-79
2021/05/28 01:52:38;;;;;;;22.42;12.23;;;;;;;6.32;99.60;101799.03;5079380;28;20032;-79
2021/05/28 01:55:04;;;;;;;25.80;12.77;;;;;;;6.32;100.00;101809.69;5096498;28;20429;-79
2021/05/28 01:57:30;;;;;;;29.58;14.35;;;;;;;6.31;99.84;101819.50;5079343;28;20031;-79
2021/05/28 01:59:55;;;;;;;28.02;13.50;;;;;;;6.23;100.00;101813.44;5096197;28;20081;-79
2021/05/28 02:02:21;;;;;;;30.70;14.25;;;;;;;6.19;99.92;101810.88;5096085;28;20027;-79
2021/05/28 02:04:46;;;;;;;29.40;13.63;;;;;;;6.26;99.99;101818.72;5078861;28;20467;-81
2021/05/28 02:07:12;;;;;;;25.33;12.70;;;;;;;6.22;100.00;101808.13;5079320;28;20077;-78
2021/05/28 02:09:37;;;;;;;31.20;13.05;;;;;;;6.20;99.85;101810.88;5078904;28;20401;-79
2021/05/28 02:12:03;;;;;;;28.48;12.88;;;;;;;6.14;100.00;101815.47;5096254;28;20052;-80
2021/05/28 02:14:29;;;;;;;28.88;13.80;;;;;;;6.18;99.64;101830.50;5078965;28;20027;-79
2021/05/28 02:16:55;;;;;;;25.55;12.80;;;;;;;6.21;99.98;101827.75;5095401;28;20036;-80
2021/05/28 02:19:21;;;;;;;35.22;13.25;;;;;;;6.13;100.00;101827.94;5095875;28;20054;-81
2021/05/28 02:21:50;;;;;;;33.65;13.55;;;;;;;6.17;100.00;101826.06;5078750;28;20019;-80
2021/05/28 02:24:16;;;;;;;26.30;13.10;;;;;;;6.08;100.00;101822.69;5083461;28;20035;-79
2021/05/28 02:26:44;;;;;;;27.77;13.07;;;;;;;6.16;100.00;101826.97;5078795;28;20077;-80
2021/05/28 02:29:10;;;;;;;26.65;12.60;;;;;;;6.08;99.82;101833.38;5095944;28;20506;-80
2021/05/28 02:31:36;;;;;;;35.15;14.65;;;;;;;5.99;99.38;101836.25;5095668;28;20024;-79
2021/05/28 02:34:01;;;;;;;29.00;13.70;;;;;;;6.01;100.00;101833.53;5077984;28;20079;-79
2021/05/28 02:36:27;;;;;;;29.38;14.15;;;;;;;5.95;99.95;101829.22;5095464;28;20108;-80
2021/05/28 02:38:52;;;;;;;30.63;14.52;;;;;;;5.85;99.58;101820.50;5095569;28;20036;-80
2021/05/28 02:41:17;;;;;;;33.38;14.02;;;;;;;5.82;100.00;101831.22;5095339;28;20016;-80
2021/05/28 02:43:42;;;;;;;36.92;14.45;;;;;;;5.90;100.00;101844.41;5095248;28;20043;-80
2021/05/28 02:46:08;;;;;;;26.75;13.20;;;;;;;5.91;99.68;101852.38;5095310;28;20028;-80
2021/05/28 02:48:33;;;;;;;28.02;13.82;;;;;;;5.94;100.00;101850.53;5078596;28;20020;-80
2021/05/28 02:50:58;;;;;;;31.30;14.45;;;;;;;5.91;99.40;101852.38;5078571;28;20024;-80
2021/05/28 02:53:24;;;;;;;24.70;14.10;;;;;;;5.95;99.75;101853.22;5077208;28;20028;-79
2021/05/28 02:55:49;;;;;;;27.23;14.10;;;;;;;5.95;99.65;101853.22;5094857;28;20537;-81
2021/05/28 02:58:14;;;;;;;27.25;14.10;;;;;;;6.02;99.89;101870.84;5095543;28;20448;-80
2021/05/28 03:00:40;;;;;;;30.13;14.55;;;;;;;6.05;100.00;101865.44;5082350;28;20035;-80
2021/05/28 03:03:05;;;;;;;26.75;13.15;;;;;;;6.10;100.00;101873.34;5095031;28;20058;-80
2021/05/28 03:05:31;;;;;;;22.83;12.73;;;;;;;6.09;100.00;101861.81;5078437;28;20020;-80
2021/05/28 03:07:56;;;;;;;23.52;12.88;;;;;;;6.19;99.48;101869.59;5077963;28;20390;-79
2021/05/28 03:10:26;;;;;;;23.83;11.70;;;;;;;6.25;99.00;101883.69;5077977;28;20027;-81
2021/05/28 03:12:51;;;;;;;25.27;13.23;;;;;;;6.34;98.59;101876.41;5077818;28;20028;-80
2021/05/28 03:15:16;;;;;;;29.15;12.68;;;;;;;6.38;99.05;101884.28;5094878;28;20028;-80
2021/05/28 03:17:43;;;;;;;25.98;12.63;;;;;;;6.44;99.30;101889.50;5094709;28;20028;-79
2021/05/28 03:20:17;;;;;;;19.30;11.45;;;;;;;6.49;99.32;101882.25;5063842;28;20383;-80
2021/05/28 03:22:44;;;;;;;17.80;11.18;;;;;;;6.55;99.13;101883.91;5094501;28;20036;-79
2021/05/28 03:25:11;;;;;;;20.50;12.32;;;;;;;6.71;98.79;101892.44;5094585;28;20024;-80
2021/05/28 03:27:37;;;;;;;21.02;11.05;;;;;;;6.78;98.08;101882.47;5077766;28;20111;-80
2021/05/28 03:30:05;;;;;;;24.15;11.88;;;;;;;6.81;98.27;101901.97;5077557;28;20078;-80
2021/05/28 03:32:30;;;;;;;21.48;11.25;;;;;;;6.85;98.33;101897.44;5077221;28;20028;-80
2021/05/28 03:34:57;;;;;;;21.58;10.80;;;;;;;6.90;97.74;101891.06;5077358;28;20039;-80
2021/05/28 03:37:23;;;;;;;21.83;10.80;;;;;;;7.00;97.74;101907.72;5077695;28;20032;-80
2021/05/28 03:39:48;;;;;;;23.37;11.77;;;;;;;7.01;97.74;101906.84;5094460;28;20020;-80
2021/05/28 03:42:14;;;;;;;21.30;10.63;;;;;;;7.10;98.02;101909.28;5077321;28;20481;-80
2021/05/28 03:44:39;;;;;;;17.17;9.20;;;;;;;7.11;97.50;101903.00;5076977;28;20028;-80
2021/05/28 03:47:05;;;;;;;19.23;10.32;;;;;;;7.17;97.46;101907.31;5077146;28;20024;-80
2021/05/28 03:49:30;;;;;;;21.05;9.68;;;;;;;7.21;97.12;101900.97;5077386;28;20027;-80
2021/05/28 03:51:55;;;;;;;22.85;9.80;;;;;;;7.34;97.20;101909.56;5077382;28;20028;-80
2021/05/28 03:54:21;;;;;;;24.45;9.63;;;;;;;7.37;96.55;101898.78;5093910;28;20016;-80
2021/05/28 03:56:47;;;;;;;18.52;8.90;;;;;;;7.51;97.09;101909.09;5086848;28;20063;-80
2021/05/28 03:59:13;;;;;;;17.30;9.65;;;;;;;7.57;96.66;101888.41;5094060;28;20027;-81
2021/05/28 04:01:38;;;;;;;23.27;9.40;;;;;;;7.70;96.28;101896.09;5093748;28;20020;-80
2021/05/28 04:04:04;;;;;;;12.50;7.13;;;;;;;7.81;94.43;101894.00;5076754;28;20023;-80
2021/05/28 04:06:29;;;;;;;12.40;7.22;;;;;;;7.82;94.92;101900.22;5093671;28;20020;-80
2021/05/28 04:08:54;;;;;;;12.40;7.30;;;;;;;7.73;95.11;101896.03;5093613;28;20024;-80
2021/05/28 04:11:20;;;;;;;16.25;7.43;;;;;;;7.68;95.04;101897.91;5076672;28;20020;-80
2021/05/28 04:13:45;;;;;;;16.25;7.38;;;;;;;7.67;95.97;101902.41;5076787;28;20022;-80
2021/05/28 04:16:10;;;;;;;15.50;7.55;;;;;;;7.64;95.64;101906.97;5076759;28;20036;-80
2021/05/28 04:18:36;;;;;;;16.10;7.38;;;;;;;7.64;94.73;101902.50;5076587;28;20050;-79
2021/05/28 04:21:01;;;;;;;20.50;7.68;;;;;;;7.65;94.69;101909.59;5094792;28;20016;-80
2021/05/28 04:23:26;;;;;;;16.70;6.72;;;;;;;7.79;94.87;101912.75;5093743;28;20028;-80
2021/05/28 04:25:52;;;;;;;17.38;6.95;;;;;;;7.81;94.00;101902.00;5093396;28;20048;-80
2021/05/28 04:28:17;;;;;;;13.70;6.63;;;;;;;7.93;95.06;101909.69;5076737;28;20105;-80
2021/05/28 04:30:44;;;;;;;14.32;7.35;;;;;;;7.96;95.08;101900.69;5076403;28;20020;-80
2021/05/28 04:33:10;;;;;;;13.63;7.70;;;;;;;8.02;94.07;101905.88;5071079;28;20039;-80
2021/05/28 04:35:36;;;;;;;19.27;7.35;;;;;;;8.04;94.50;101913.88;5076218;28;20120;-80
2021/05/28 04:38:01;;;;;;;14.55;7.43;;;;;;;8.01;94.05;101909.47;5076699;28;20123;-81
2021/05/28 04:40:28;;;;;;;20.35;7.22;;;;;;;7.93;94.61;101898.09;5093484;28;20020;-80
2021/05/28 04:42:53;;;;;;;18.95;7.53;;;;;;;7.98;95.11;101907.78;5093392;28;20031;-81
2021/05/28 04:45:19;;;;;;;18.13;7.82;;;;;;;8.01;95.74;101901.44;5093072;28;20028;-80
2021/05/28 04:47:45;;;;;;;25.38;8.52;;;;;;;8.18;96.29;101911.66;5076999;28;20024;-81
2021/05/28 04:50:11;;;;;;;19.65;9.35;;;;;;;8.13;96.26;101914.47;5093007;28;20055;-80
2021/05/28 04:52:36;;;;;;;19.10;9.27;;;;;;;8.16;95.39;101922.41;5092875;28;20038;-80
2021/05/28 04:55:02;;;;;;;22.42;9.82;;;;;;;8.34;95.72;101917.44;5092523;28;20385;-79
2021/05/28 04:57:28;;;;;;;23.58;9.20;;;;;;;8.64;95.76;101913.81;5075799;28;20034;-80
2021/05/28 04:59:53;;;;;;;19.45;9.90;;;;;;;8.87;94.68;101908.66;5092664;28;20052;-80
2021/05/28 05:02:18;;;;;;;20.75;10.43;;;;;;;9.16;94.55;101924.63;5092480;28;20115;-81
2021/05/28 05:04:44;;;;;;;25.08;9.40;;;;;;;9.27;93.05;101921.59;5075970;28;20070;-79
2021/05/28 05:07:09;;;;;;;21.27;9.82;;;;;;;9.33;92.90;101926.75;5092764;28;20028;-80
2021/05/28 05:09:34;;;;;;;23.75;9.82;;;;;;;9.40;92.46;101914.88;5092561;28;20106;-80
2021/05/28 05:12:00;;;;;;;21.27;9.32;;;;;;;9.59;91.85;101919.59;5092363;28;20119;-79
2021/05/28 05:14:25;;;;;;;23.02;9.60;;;;;;;9.84;91.33;101923.16;5092522;28;20035;-79
2021/05/28 05:16:50;;;;;;;22.35;9.07;;;;;;;9.89;90.56;101925.66;5078150;28;20035;-79
2021/05/28 05:19:16;;;;;;;23.10;8.82;;;;;;;10.03;89.44;101927.84;5079787;28;20024;-81
2021/05/28 05:21:41;;;;;;;21.80;9.35;;;;;;;10.15;90.50;101935.44;5079642;28;20020;-79
2021/05/28 05:24:08;;;;;;;18.08;9.38;;;;;;;10.15;90.38;101938.13;5096171;28;20522;-79
2021/05/28 05:26:34;;;;;;;20.00;8.32;;;;;;;10.17;89.24;101941.63;5079558;28;20035;-80
2021/05/28 05:28:59;;;;;;;16.40;8.82;;;;;;;9.93;89.46;101937.16;5096692;28;20031;-80
2021/05/28 05:31:24;;;;;;;23.83;8.48;;;;;;;9.99;88.05;101951.22;5079594;28;20024;-79
2021/05/28 05:33:50;;;;;;;14.90;8.15;;;;;;;9.81;89.40;101957.25;5079203;28;20055;-81
2021/05/28 05:36:16;;;;;;;23.15;8.40;;;;;;;9.66;89.91;101947.97;5096679;28;20479;-80
2021/05/28 05:38:41;;;;;;;12.93;8.25;;;;;;;9.61;89.09;101949.94;5096530;28;20024;-80
2021/05/28 05:41:06;;;;;;;16.42;8.40;;;;;;;9.63;89.03;101956.09;5094262;28;20438;-84
2021/05/28 05:43:32;;;;;;;16.25;8.40;;;;;;;9.57;88.83;101957.22;5096381;28;20455;-81
2021/05/28 05:45:57;;;;;;;17.17;7.90;;;;;;;9.61;89.36;101961.53;5081445;28;20489;-81
2021/05/28 05:48:23;;;;;;;13.95;8.63;;;;;;;9.62;89.29;101967.78;5065840;28;20426;-78
2021/05/28 05:50:48;;;;;;;13.70;7.90;;;;;;;9.61;88.09;101972.28;5080495;28;20111;-78
2021/05/28 05:53:13;;;;;;;16.67;8.43;;;;;;;9.54;88.75;101972.53;5077196;28;20024;-78
2021/05/28 05:55:39;;;;;;;14.10;7.85;;;;;;;9.48;88.33;101977.19;5078593;28;20020;-78
2021/05/28 05:58:04;;;;;;;18.23;7.78;;;;;;;9.54;88.04;101985.94;5078478;28;20482;-79
2021/05/28 06:00:29;;;;;;;14.23;8.45;;;;;;;9.45;88.68;101979.97;5078141;28;20028;-78
2021/05/28 06:02:54;;;;;;;15.60;6.68;;;;;;;9.53;87.25;101990.44;5078456;28;20383;-78
2021/05/28 06:05:20;;;;;;;16.20;8.27;;;;;;;9.50;88.19;101985.19;5078243;28;20376;-79
2021/05/28 06:07:46;;;;;;;16.60;8.85;;;;;;;9.61;88.79;101993.75;5078517;28;20044;-82
2021/05/28 06:10:13;;;;;;;13.20;8.45;;;;;;;9.56;88.29;101981.41;5078874;28;20028;-81
2021/05/28 06:12:38;;;;;;;21.15;8.70;;;;;;;9.58;88.14;101996.50;5095646;28;20030;-80
2021/05/28 06:15:04;;;;;;;12.45;7.38;;;;;;;9.61;88.89;101998.25;5078295;28;20111;-81
2021/05/28 06:17:30;;;;;;;14.80;9.57;;;;;;;9.71;88.79;101991.63;5095455;28;20032;-82
2021/05/28 06:19:55;;;;;;;13.15;7.50;;;;;;;9.78;88.01;101982.41;5078154;28;20036;-82
2021/05/28 06:22:22;;;;;;;18.13;8.13;;;;;;;9.90;86.85;101995.38;5095940;28;20082;-82
2021/05/28 06:24:51;;;;;;;15.15;8.30;;;;;;;10.11;87.04;102007.16;5095636;28;20515;-81
2021/05/28 06:27:16;;;;;;;13.73;7.20;;;;;;;10.08;86.40;101998.34;5078704;28;20042;-81
2021/05/28 06:29:42;;;;;;;15.98;7.03;;;;;;;10.09;86.25;101983.97;5078305;28;20032;-80
2021/05/28 06:32:07;;;;;;;12.95;7.85;;;;;;;10.21;85.21;101999.66;5095038;28;20095;-81
2021/05/28 06:34:32;;;;;;;12.18;6.45;;;;;;;10.27;84.52;101993.19;5088119;28;20076;-81
2021/05/28 06:36:59;;;;;;;15.02;7.40;;;;;;;10.13;84.42;102000.88;5074994;28;20115;-81
2021/05/28 06:39:24;;;;;;;16.65;7.20;;;;;;;10.03;85.78;102011.09;5075116;28;20101;-81
2021/05/28 06:41:50;;;;;;;20.58;7.55;;;;;;;9.93;85.38;102004.28;5084645;28;20029;-81
2021/05/28 06:44:15;;;;;;;15.18;8.63;;;;;;;9.82;87.06;102002.84;5094680;28;20016;-82
2021/05/28 06:46:40;;;;;;;16.05;8.48;;;;;;;9.72;86.08;102001.41;5077660;28;20058;-79
2021/05/28 06:49:06;;;;;;;14.88;7.80;;;;;;;9.77;85.87;102004.84;5077977;28;20043;-79
2021/05/28 06:51:31;;;;;;;18.75;8.60;;;;;;;9.68;88.42;102011.38;5077579;28;20020;-78
2021/05/28 06:53:56;;;;;;;19.80;8.95;;;;;;;9.66;85.52;102007.00;5094857;28;20032;-79
2021/05/28 06:56:22;;;;;;;19.00;10.07;;;;;;;9.55;85.97;102017.22;5077862;28;20024;-79
2021/05/28 06:58:49;;;;;;;18.27;9.77;;;;;;;9.63;86.03;102017.81;5077727;28;20406;-79
2021/05/28 07:01:14;;;;;;;;;;;;;;;9.51;87.26;102034.34;5094847;28;20016;-79
2021/05/28 07:03:40;;;;;;;25.50;11.27;;;;;;;9.48;88.61;102027.28;5094253;28;19916;-79
2021/05/28 07:06:05;;;;;;;18.90;10.40;;;;;;;9.47;88.28;102038.97;5094210;28;20059;-79
2021/05/28 07:08:32;;;;;;;20.15;10.13;;;;;;;9.50;89.50;102038.84;5077474;28;20028;-80
2021/05/28 07:10:57;;;;;;;22.05;10.60;;;;;;;9.32;87.90;102040.31;5077399;28;20110;-80
2021/05/28 07:13:23;;;;;;;20.70;10.30;;;;;;;9.36;87.84;102047.34;5077480;28;20115;-79
2021/05/28 07:15:48;;;;;;;22.42;10.25;;;;;;;9.32;87.13;102034.97;5077084;28;20039;-80
2021/05/28 07:18:14;;;;;;;20.65;10.18;;;;;;;9.44;89.02;102047.97;5092795;28;20027;-79
2021/05/28 07:20:39;;;;;;;29.70;11.05;;;;;;;9.57;88.37;102045.75;5077560;28;20336;-81
2021/05/28 07:23:04;;;;;;;20.55;8.40;;;;;;;9.66;84.78;102037.41;5077416;28;20055;-81
2021/05/28 07:25:30;;;;;;;18.55;8.57;;;;;;;9.75;85.31;102041.59;5077304;28;20024;-81
2021/05/28 07:27:55;;;;;;;16.95;9.00;;;;;;;9.80;84.23;102046.78;5095253;28;20144;-84
2021/05/28 07:30:21;;;;;;;22.13;9.95;;;;;;;9.90;85.65;102046.41;5077230;28;20020;-82
2021/05/28 07:32:46;;;;;;;22.30;9.48;;;;;;;9.98;85.21;102042.56;5093929;28;20040;-83
2021/05/28 07:35:12;;;;;;;22.60;8.52;;;;;;;10.24;83.22;102045.22;5077252;28;20048;-83
2021/05/28 07:37:38;;;;;;;24.17;8.82;;;;;;;10.35;83.89;102038.59;5093822;28;20479;-82
2021/05/28 07:40:07;;;;;;;20.00;7.85;;;;;;;10.54;80.89;102053.13;5076858;28;20054;-82
2021/05/28 07:42:33;;;;;;;18.52;8.52;;;;;;;10.55;83.55;102052.16;5077196;28;20039;-82
2021/05/28 07:44:58;;;;;;;17.58;9.48;;;;;;;10.78;80.94;102058.50;5094201;28;20478;-81
2021/05/28 07:47:24;;;;;;;17.85;8.68;;;;;;;10.85;79.58;102051.94;5094350;28;20016;-82
2021/05/28 07:49:49;;;;;;;21.50;8.90;;;;;;;10.69;80.59;102051.66;5094158;28;20034;-81
2021/05/28 07:52:14;;;;;;;21.55;8.82;;;;;;;10.44;80.70;102046.31;5094002;28;20024;-82
2021/05/28 07:54:40;;;;;;;20.08;10.15;;;;;;;10.42;82.33;102046.38;5094016;28;20143;-82
2021/05/28 07:57:07;;;;;;;20.27;8.95;;;;;;;10.46;82.00;102052.50;5077362;28;20055;-83
2021/05/28 07:59:32;;;;;;;19.20;9.35;;;;;;;10.81;80.55;102055.66;5094288;28;20077;-81
2021/05/28 08:01:57;;;;;;;18.20;9.07;;;;;;;11.20;79.47;102039.78;5082461;28;20028;-83
2021/05/28 08:04:23;;;;;;;19.58;8.13;;;;;;;11.52;78.26;102035.75;5076805;28;20024;-83
2021/05/28 08:06:48;;;;;;;19.10;9.43;;;;;;;11.94;77.96;102048.34;5077150;28;20035;-83
2021/05/28 08:09:14;;;;;;;18.83;8.30;;;;;;;12.73;76.50;102042.13;5076939;28;20499;-84
2021/05/28 08:11:40;;;;;;;20.35;8.45;;;;;;;13.09;72.11;102047.63;5077199;28;20071;-83
2021/05/28 08:14:05;;;;;;;15.65;8.07;;;;;;;13.05;72.78;102052.28;5077084;28;20028;-83
2021/05/28 08:16:31;;;;;;;21.08;9.45;;;;;;;12.89;72.40;102061.19;5076641;28;20024;-84
2021/05/28 08:18:56;;;;;;;19.27;8.38;;;;;;;12.88;74.78;102062.09;5076732;28;20035;-82
2021/05/28 08:21:21;;;;;;;17.63;8.02;;;;;;;13.06;73.70;102053.13;5093789;28;20089;-83
2021/05/28 08:23:47;;;;;;;19.80;8.32;;;;;;;13.79;71.84;102067.56;5093730;28;20028;-83
2021/05/28 08:26:12;;;;;;;16.65;7.72;;;;;;;13.77;70.82;102069.47;5093619;28;20039;-83
2021/05/28 08:28:38;;;;;;;15.77;9.30;;;;;;;13.40;70.92;102063.22;5076625;28;20387;-83
2021/05/28 08:31:04;;;;;;;14.85;8.30;;;;;;;13.48;69.14;102062.81;5076539;28;20024;-83
2021/05/28 08:33:30;;;;;;;15.15;8.10;;;;;;;14.38;68.38;102059.09;5076148;28;20418;-81
2021/05/28 08:35:55;;;;;;;17.70;8.93;;;;;;;17.06;56.78;102049.66;5076335;28;20016;-82
2021/05/28 08:38:21;;;;;;;14.70;8.32;;;;;;;16.95;59.36;102048.50;5076069;28;20016;-82
2021/05/28 08:40:46;;;;;;;17.50;9.43;;;;;;;16.81;58.94;102051.25;5076554;28;20024;-82
2021/05/28 08:43:12;;;;;;;16.42;8.43;;;;;;;16.98;54.34;102047.44;5076648;28;20028;-82
2021/05/28 08:45:40;;;;;;;18.65;8.57;;;;;;;18.81;49.06;102043.97;5093221;28;20062;-82
2021/05/28 08:48:07;;;;;;;15.95;8.82;;;;;;;19.27;50.29;102056.06;5076578;28;20028;-83
2021/05/28 08:50:32;;;;;;;;;;;;;;;18.99;49.96;102055.38;5076129;28;20016;-83
2021/05/28 08:53:02;;;;;;;12.30;7.28;;;;;;;18.83;52.27;102065.66;5093270;28;20469;-83
2021/05/28 08:55:27;;;;;;;14.73;7.20;;;;;;;18.01;54.83;102065.94;5076482;28;20035;-83
2021/05/28 08:57:53;;;;;;;18.27;8.25;;;;;;;17.04;57.47;102058.78;5093253;28;20024;-83
2021/05/28 09:00:18;;;;;;;16.13;9.00;;;;;;;17.86;55.91;102056.09;5076358;28;20042;-83
2021/05/28 09:02:44;;;;;;;14.07;8.20;;;;;;;18.19;53.46;102046.56;5093012;28;20051;-83
2021/05/28 09:05:20;;;;;;;16.25;8.40;;;;;;;17.03;56.39;102051.63;5076015;28;20028;-83
2021/05/28 09:07:59;;;;;;;14.32;7.72;;;;;;;16.63;55.60;102064.97;5076374;28;20028;-83
2021/05/28 09:10:34;;;;;;;16.67;8.68;;;;;;;15.55;62.48;102058.91;5093196;28;20027;-83
2021/05/28 09:13:14;;;;;;;16.90;7.88;;;;;;;15.15;62.04;102066.59;5076741;28;20016;-83
2021/05/28 09:15:43;;;;;;;12.55;7.97;;;;;;;14.96;64.49;102060.47;5092671;28;20031;-82
2021/05/28 09:18:08;;;;;;;15.05;7.85;;;;;;;14.75;62.55;102066.13;5093195;28;20024;-82
2021/05/28 09:20:34;;;;;;;18.45;8.23;;;;;;;14.61;65.73;102066.00;5092637;28;20028;-82
2021/05/28 09:23:10;;;;;;;24.73;8.73;;;;;;;14.57;65.08;102080.66;5075859;28;20425;-80
2021/05/28 09:26:00;;;;;;;16.27;8.07;;;;;;;14.62;64.23;102074.06;5093188;28;20464;-83
2021/05/28 09:28:26;;;;;;;17.50;8.13;;;;;;;14.55;66.21;102074.44;5076293;28;20027;-81
2021/05/28 09:31:00;;;;;;;16.63;8.52;;;;;;;14.83;65.30;102072.00;5075761;28;20070;-81
2021/05/28 09:33:27;;;;;;;17.15;8.75;;;;;;;15.18;63.25;102081.78;5092682;28;20137;-82
2021/05/28 09:36:04;;;;;;;13.27;7.53;;;;;;;15.12;61.55;102070.34;5075952;28;20119;-82
2021/05/28 09:38:29;;;;;;;16.23;7.85;;;;;;;15.41;61.84;102067.84;5076277;28;20032;-82
2021/05/28 09:40:55;;;;;;;14.70;8.35;;;;;;;15.02;63.30;102073.69;5076426;28;20047;-84
2021/05/28 09:43:25;;;;;;;16.00;7.63;;;;;;;14.51;63.91;102085.41;5075895;28;20421;-82
2021/05/28 09:45:51;;;;;;;18.02;8.07;;;;;;;14.14;69.23;102083.78;5075748;28;20043;-82
2021/05/28 09:48:16;;;;;;;18.13;8.00;;;;;;;14.03;68.79;102087.03;5092710;28;20016;-81
2021/05/28 09:50:46;;;;;;;21.85;9.02;;;;;;;13.76;70.53;102088.44;5092401;28;20422;-81
2021/05/28 09:53:36;;;;;;;20.27;8.77;;;;;;;13.56;69.48;102086.75;5075533;28;20062;-82
2021/05/28 09:56:22;;;;;;;19.27;7.95;;;;;;;13.64;67.58;102079.13;5092634;28;20032;-82
2021/05/28 09:59:01;;;;;;;21.48;9.88;;;;;;;13.50;70.44;102076.25;5092634;28;20028;-81
2021/05/28 10:01:28;;;;;;;18.55;8.25;;;;;;;14.12;69.40;102074.88;5076019;28;20041;-81
2021/05/28 10:04:09;;;;;;;18.00;7.93;;;;;;;17.09;60.07;102077.47;5079390;28;20104;-82
2021/05/28 10:06:39;;;;;;;20.52;7.78;;;;;;;19.21;52.39;102070.13;5079218;28;20028;-81
2021/05/28 10:09:09;;;;;;;14.30;6.60;;;;;;;19.43;49.54;102064.84;5079360;28;20016;-82
2021/05/28 10:11:37;;;;;;;16.55;6.80;;;;;;;18.77;52.42;102072.41;5079039;28;20020;-82
2021/05/28 10:14:03;;;;;;;13.52;6.32;;;;;;;17.64;55.45;102078.41;5079041;28;20024;-82
2021/05/28 10:16:29;;;;;;;13.73;6.55;;;;;;;16.54;60.37;102072.81;5096038;28;20031;-81
2021/05/28 10:18:55;;;;;;;13.10;6.38;;;;;;;15.66;61.59;102075.38;5096099;28;20032;-83
2021/05/28 10:21:22;;;;;;;17.17;7.43;;;;;;;14.83;64.49;102076.50;5095764;28;20031;-81
2021/05/28 10:23:47;;;;;;;17.95;7.65;;;;;;;14.98;63.94;102074.81;5079053;28;20415;-82
2021/05/28 10:26:16;;;;;;;15.80;7.70;;;;;;;15.07;62.96;102074.28;5095901;28;20035;-83
2021/05/28 10:28:44;;;;;;;15.80;7.75;;;;;;;14.93;62.85;102078.63;5095726;28;20024;-83
2021/05/28 10:31:10;;;;;;;18.00;6.95;;;;;;;14.96;65.70;102066.75;5078604;28;20028;-81
2021/05/28 10:33:36;;;;;;;12.63;6.93;;;;;;;15.87;60.37;102067.84;5095604;28;20039;-83
2021/05/28 10:36:04;;;;;;;14.82;6.55;;;;;;;16.66;60.54;102074.75;5095899;28;20107;-82
2021/05/28 10:38:30;;;;;;;16.08;6.80;;;;;;;17.27;58.30;102070.00;5096150;28;20028;-81
2021/05/28 10:41:04;;;;;;;12.93;6.00;;;;;;;17.99;55.78;102067.88;5095867;28;20485;-81
2021/05/28 10:43:30;;;;;;;14.90;6.85;;;;;;;17.75;55.70;102059.50;5095600;28;20050;-81
2021/05/28 10:46:02;;;;;;;13.45;6.45;;;;;;;18.75;54.10;102065.28;5095631;28;20016;-82
2021/05/28 10:48:40;;;;;;;16.50;6.97;;;;;;;19.87;49.19;102057.03;5095396;28;20459;-80
2021/05/28 10:51:14;;;;;;;13.43;5.68;;;;;;;19.76;49.26;102050.50;5095188;28;20044;-81
2021/05/28 10:53:51;;;;;;;12.60;6.60;;;;;;;19.20;49.94;102052.06;5075292;28;20032;-81
2021/05/28 10:56:19;;;;;;;14.73;7.20;;;;;;;21.62;45.68;102046.50;5090445;28;20382;-83
2021/05/28 10:58:55;;;;;;;13.23;5.85;;;;;;;24.34;38.36;102046.63;5083986;28;20032;-85
2021/05/28 11:01:35;;;;;;;11.98;5.38;;;;;;;24.61;37.03;102047.72;5086347;28;20055;-85
2021/05/28 11:04:16;;;;;;;12.45;5.65;;;;;;;22.24;43.20;102041.25;5094495;28;20032;-82
2021/05/28 11:06:54;;;;;;;12.07;5.80;;;;;;;20.62;44.85;102048.38;5076942;28;20032;-82
2021/05/28 11:09:44;;;;;;;11.90;6.30;;;;;;;19.52;48.58;102042.34;5097065;28;20077;-82
2021/05/28 11:12:13;;;;;;;11.02;5.75;;;;;;;18.48;50.93;102058.13;5063062;28;20074;-82
2021/05/28 11:14:56;;;;;;;12.65;6.57;;;;;;;18.23;50.52;102043.53;5093684;28;20088;-81
2021/05/28 11:17:21;;;;;;;11.85;5.78;;;;;;;19.88;49.54;102042.38;5087883;28;20104;-81